sensor_id;sensor_type;location;lat;lon;timestamp;P1;durP1;ratioP1;P2;durP2;ratioP2
815;SDS011;25928;51.062;13.752;2022-07-29T00:00:42;4.43;;;1.80;;
815;SDS011;25928;51.062;13.752;2022-07-29T00:03:09;4.10;;;2.20;;
815;SDS011;25928;51.062;13.752;2022-07-29T00:05:37;3.73;;;1.80;;
815;SDS011;25928;51.062;13.752;2022-07-29T00:08:04;4.97;;;1.80;;
815;SDS011;25928;51.062;13.752;2022-07-29T00:10:30;5.33;;;1.97;;
815;SDS011;25928;51.062;13.752;2022-07-29T00:12:56;3.33;;;1.87;;
815;SDS011;25928;51.062;13.752;2022-07-29T00:15:22;6.03;;;2.07;;
815;SDS011;25928;51.062;13.752;2022-07-29T00:17:51;5.13;;;1.87;;
815;SDS011;25928;51.062;13.752;2022-07-29T00:20:16;3.70;;;2.17;;
815;SDS011;25928;51.062;13.752;2022-07-29T00:22:42;3.00;;;2.03;;
815;SDS011;25928;51.062;13.752;2022-07-29T00:25:08;1.90;;;1.63;;
815;SDS011;25928;51.062;13.752;2022-07-29T00:27:34;2.63;;;2.07;;
815;SDS011;25928;51.062;13.752;2022-07-29T00:30:01;5.40;;;2.20;;
815;SDS011;25928;51.062;13.752;2022-07-29T00:32:28;3.90;;;2.00;;
815;SDS011;25928;51.062;13.752;2022-07-29T00:34:54;5.07;;;2.47;;
815;SDS011;25928;51.062;13.752;2022-07-29T00:37:39;3.50;;;2.23;;
815;SDS011;25928;51.062;13.752;2022-07-29T00:40:05;3.80;;;1.63;;
815;SDS011;25928;51.062;13.752;2022-07-29T00:42:31;3.53;;;2.17;;
815;SDS011;25928;51.062;13.752;2022-07-29T00:45:09;4.33;;;1.90;;
815;SDS011;25928;51.062;13.752;2022-07-29T00:47:35;2.70;;;2.10;;
815;SDS011;25928;51.062;13.752;2022-07-29T00:50:01;2.40;;;1.80;;
815;SDS011;25928;51.062;13.752;2022-07-29T00:52:29;4.80;;;2.50;;
815;SDS011;25928;51.062;13.752;2022-07-29T00:54:54;4.37;;;2.27;;
815;SDS011;25928;51.062;13.752;2022-07-29T00:57:21;4.40;;;2.63;;
815;SDS011;25928;51.062;13.752;2022-07-29T00:59:47;6.33;;;2.10;;
815;SDS011;25928;51.062;13.752;2022-07-29T01:02:12;2.73;;;1.73;;
815;SDS011;25928;51.062;13.752;2022-07-29T01:04:38;3.90;;;2.20;;
815;SDS011;25928;51.062;13.752;2022-07-29T01:07:04;7.30;;;2.37;;
815;SDS011;25928;51.062;13.752;2022-07-29T01:09:31;4.27;;;2.50;;
815;SDS011;25928;51.062;13.752;2022-07-29T01:11:58;4.87;;;2.80;;
815;SDS011;25928;51.062;13.752;2022-07-29T01:14:24;3.80;;;2.73;;
815;SDS011;25928;51.062;13.752;2022-07-29T01:16:51;8.17;;;2.87;;
815;SDS011;25928;51.062;13.752;2022-07-29T01:22:26;4.73;;;1.93;;
815;SDS011;25928;51.062;13.752;2022-07-29T01:25:02;4.33;;;2.20;;
815;SDS011;25928;51.062;13.752;2022-07-29T01:27:38;2.77;;;2.40;;
815;SDS011;25928;51.062;13.752;2022-07-29T01:30:12;5.53;;;2.27;;
815;SDS011;25928;51.062;13.752;2022-07-29T01:32:38;5.67;;;2.67;;
815;SDS011;25928;51.062;13.752;2022-07-29T01:40:01;6.33;;;3.73;;
815;SDS011;25928;51.062;13.752;2022-07-29T01:42:38;4.60;;;2.73;;
815;SDS011;25928;51.062;13.752;2022-07-29T01:47:43;7.80;;;3.60;;
815;SDS011;25928;51.062;13.752;2022-07-29T01:50:19;9.57;;;3.83;;
815;SDS011;25928;51.062;13.752;2022-07-29T01:55:28;5.47;;;3.80;;
815;SDS011;25928;51.062;13.752;2022-07-29T01:57:57;9.60;;;3.93;;
815;SDS011;25928;51.062;13.752;2022-07-29T02:00:25;5.73;;;3.83;;
815;SDS011;25928;51.062;13.752;2022-07-29T02:02:51;6.00;;;3.83;;
815;SDS011;25928;51.062;13.752;2022-07-29T02:05:19;8.27;;;5.30;;
815;SDS011;25928;51.062;13.752;2022-07-29T02:07:47;6.70;;;4.93;;
815;SDS011;25928;51.062;13.752;2022-07-29T02:10:16;9.90;;;5.97;;
815;SDS011;25928;51.062;13.752;2022-07-29T02:12:45;11.80;;;7.00;;
815;SDS011;25928;51.062;13.752;2022-07-29T02:15:12;12.50;;;7.30;;
815;SDS011;25928;51.062;13.752;2022-07-29T02:17:48;11.37;;;8.10;;
815;SDS011;25928;51.062;13.752;2022-07-29T02:20:18;12.03;;;8.87;;
815;SDS011;25928;51.062;13.752;2022-07-29T02:22:44;11.67;;;9.17;;
815;SDS011;25928;51.062;13.752;2022-07-29T02:25:11;13.70;;;9.73;;
815;SDS011;25928;51.062;13.752;2022-07-29T02:27:38;12.83;;;10.00;;
815;SDS011;25928;51.062;13.752;2022-07-29T02:30:06;13.20;;;9.87;;
815;SDS011;25928;51.062;13.752;2022-07-29T02:32:35;18.47;;;11.10;;
815;SDS011;25928;51.062;13.752;2022-07-29T02:35:03;11.53;;;10.17;;
815;SDS011;25928;51.062;13.752;2022-07-29T02:37:29;11.43;;;9.50;;
815;SDS011;25928;51.062;13.752;2022-07-29T02:39:56;12.60;;;10.17;;
815;SDS011;25928;51.062;13.752;2022-07-29T02:42:23;13.93;;;9.20;;
815;SDS011;25928;51.062;13.752;2022-07-29T02:44:51;11.37;;;9.90;;
815;SDS011;25928;51.062;13.752;2022-07-29T02:50:02;11.30;;;9.43;;
815;SDS011;25928;51.062;13.752;2022-07-29T02:52:44;13.10;;;9.80;;
815;SDS011;25928;51.062;13.752;2022-07-29T02:57:42;15.50;;;11.00;;
815;SDS011;25928;51.062;13.752;2022-07-29T03:00:11;13.17;;;9.57;;
815;SDS011;25928;51.062;13.752;2022-07-29T03:02:39;11.83;;;8.30;;
815;SDS011;25928;51.062;13.752;2022-07-29T03:05:11;15.17;;;8.67;;
815;SDS011;25928;51.062;13.752;2022-07-29T03:07:43;11.90;;;8.60;;
815;SDS011;25928;51.062;13.752;2022-07-29T03:10:12;13.53;;;11.87;;
815;SDS011;25928;51.062;13.752;2022-07-29T03:12:39;12.47;;;11.17;;
815;SDS011;25928;51.062;13.752;2022-07-29T03:15:06;15.77;;;13.20;;
815;SDS011;25928;51.062;13.752;2022-07-29T03:17:32;17.80;;;13.40;;
815;SDS011;25928;51.062;13.752;2022-07-29T03:19:58;16.57;;;13.20;;
815;SDS011;25928;51.062;13.752;2022-07-29T03:22:24;25.33;;;14.37;;
815;SDS011;25928;51.062;13.752;2022-07-29T03:24:50;16.80;;;13.00;;
815;SDS011;25928;51.062;13.752;2022-07-29T03:27:16;16.10;;;14.47;;
815;SDS011;25928;51.062;13.752;2022-07-29T03:29:42;15.60;;;13.43;;
815;SDS011;25928;51.062;13.752;2022-07-29T03:32:07;18.00;;;15.10;;
815;SDS011;25928;51.062;13.752;2022-07-29T03:34:33;16.17;;;14.20;;
815;SDS011;25928;51.062;13.752;2022-07-29T03:36:59;22.97;;;19.40;;
815;SDS011;25928;51.062;13.752;2022-07-29T03:39:26;25.57;;;22.87;;
815;SDS011;25928;51.062;13.752;2022-07-29T03:41:56;24.63;;;21.33;;
815;SDS011;25928;51.062;13.752;2022-07-29T03:44:25;24.93;;;21.77;;
815;SDS011;25928;51.062;13.752;2022-07-29T03:46:51;24.83;;;20.40;;
815;SDS011;25928;51.062;13.752;2022-07-29T03:49:20;25.37;;;21.37;;
815;SDS011;25928;51.062;13.752;2022-07-29T03:51:48;29.13;;;22.97;;
815;SDS011;25928;51.062;13.752;2022-07-29T03:54:14;29.00;;;20.93;;
815;SDS011;25928;51.062;13.752;2022-07-29T03:56:40;26.47;;;21.50;;
815;SDS011;25928;51.062;13.752;2022-07-29T03:59:11;23.53;;;21.13;;
815;SDS011;25928;51.062;13.752;2022-07-29T04:01:38;23.03;;;18.60;;
815;SDS011;25928;51.062;13.752;2022-07-29T04:04:04;20.13;;;17.30;;
815;SDS011;25928;51.062;13.752;2022-07-29T04:06:51;22.07;;;19.67;;
815;SDS011;25928;51.062;13.752;2022-07-29T04:09:16;22.43;;;17.97;;
815;SDS011;25928;51.062;13.752;2022-07-29T04:11:41;20.87;;;18.10;;
815;SDS011;25928;51.062;13.752;2022-07-29T04:14:07;26.40;;;22.07;;
815;SDS011;25928;51.062;13.752;2022-07-29T04:16:33;29.10;;;22.87;;
815;SDS011;25928;51.062;13.752;2022-07-29T04:18:59;32.03;;;24.63;;
815;SDS011;25928;51.062;13.752;2022-07-29T04:21:25;28.80;;;23.60;;
815;SDS011;25928;51.062;13.752;2022-07-29T04:23:51;29.40;;;24.23;;
815;SDS011;25928;51.062;13.752;2022-07-29T04:26:17;29.87;;;23.30;;
815;SDS011;25928;51.062;13.752;2022-07-29T04:28:43;25.37;;;22.73;;
815;SDS011;25928;51.062;13.752;2022-07-29T04:31:09;25.40;;;21.63;;
815;SDS011;25928;51.062;13.752;2022-07-29T04:33:34;23.77;;;19.97;;
815;SDS011;25928;51.062;13.752;2022-07-29T04:36:00;27.13;;;20.97;;
815;SDS011;25928;51.062;13.752;2022-07-29T04:38:26;28.07;;;22.20;;
815;SDS011;25928;51.062;13.752;2022-07-29T04:40:51;24.50;;;19.60;;
815;SDS011;25928;51.062;13.752;2022-07-29T04:43:17;23.70;;;19.67;;
815;SDS011;25928;51.062;13.752;2022-07-29T04:45:42;22.60;;;18.50;;
815;SDS011;25928;51.062;13.752;2022-07-29T04:48:08;20.67;;;17.40;;
815;SDS011;25928;51.062;13.752;2022-07-29T04:50:34;22.73;;;19.60;;
815;SDS011;25928;51.062;13.752;2022-07-29T04:53:00;21.90;;;19.67;;
815;SDS011;25928;51.062;13.752;2022-07-29T04:55:25;23.33;;;18.43;;
815;SDS011;25928;51.062;13.752;2022-07-29T04:57:51;23.60;;;19.07;;
815;SDS011;25928;51.062;13.752;2022-07-29T05:00:16;18.70;;;16.80;;
815;SDS011;25928;51.062;13.752;2022-07-29T05:02:42;20.70;;;16.10;;
815;SDS011;25928;51.062;13.752;2022-07-29T05:05:08;18.20;;;16.37;;
815;SDS011;25928;51.062;13.752;2022-07-29T05:07:34;17.80;;;15.93;;
815;SDS011;25928;51.062;13.752;2022-07-29T05:10:00;20.77;;;18.53;;
815;SDS011;25928;51.062;13.752;2022-07-29T05:12:26;23.20;;;20.40;;
815;SDS011;25928;51.062;13.752;2022-07-29T05:14:52;20.93;;;18.70;;
815;SDS011;25928;51.062;13.752;2022-07-29T05:17:18;21.27;;;18.53;;
815;SDS011;25928;51.062;13.752;2022-07-29T05:19:44;23.43;;;19.70;;
815;SDS011;25928;51.062;13.752;2022-07-29T05:22:09;22.07;;;18.83;;
815;SDS011;25928;51.062;13.752;2022-07-29T05:24:35;23.50;;;21.00;;
815;SDS011;25928;51.062;13.752;2022-07-29T05:27:01;23.50;;;19.07;;
815;SDS011;25928;51.062;13.752;2022-07-29T05:29:27;22.03;;;18.30;;
815;SDS011;25928;51.062;13.752;2022-07-29T05:31:53;23.43;;;19.20;;
815;SDS011;25928;51.062;13.752;2022-07-29T05:34:19;20.47;;;18.37;;
815;SDS011;25928;51.062;13.752;2022-07-29T05:36:45;22.83;;;17.00;;
815;SDS011;25928;51.062;13.752;2022-07-29T05:39:11;21.27;;;18.17;;
815;SDS011;25928;51.062;13.752;2022-07-29T05:41:38;20.73;;;18.70;;
815;SDS011;25928;51.062;13.752;2022-07-29T05:44:05;27.40;;;18.17;;
815;SDS011;25928;51.062;13.752;2022-07-29T05:46:30;19.20;;;17.23;;
815;SDS011;25928;51.062;13.752;2022-07-29T05:48:56;21.87;;;17.03;;
815;SDS011;25928;51.062;13.752;2022-07-29T05:51:21;18.63;;;16.37;;
815;SDS011;25928;51.062;13.752;2022-07-29T05:53:47;18.83;;;16.63;;
815;SDS011;25928;51.062;13.752;2022-07-29T05:56:13;20.60;;;16.83;;
815;SDS011;25928;51.062;13.752;2022-07-29T05:58:39;22.37;;;17.40;;
815;SDS011;25928;51.062;13.752;2022-07-29T06:01:04;20.63;;;17.13;;
815;SDS011;25928;51.062;13.752;2022-07-29T06:03:30;22.43;;;18.27;;
815;SDS011;25928;51.062;13.752;2022-07-29T06:05:56;19.67;;;17.57;;
815;SDS011;25928;51.062;13.752;2022-07-29T06:08:22;25.17;;;20.47;;
815;SDS011;25928;51.062;13.752;2022-07-29T06:10:48;22.93;;;19.03;;
815;SDS011;25928;51.062;13.752;2022-07-29T06:13:15;25.67;;;18.90;;
815;SDS011;25928;51.062;13.752;2022-07-29T06:15:41;22.73;;;18.40;;
815;SDS011;25928;51.062;13.752;2022-07-29T06:18:07;22.87;;;19.10;;
815;SDS011;25928;51.062;13.752;2022-07-29T06:20:34;20.77;;;18.50;;
815;SDS011;25928;51.062;13.752;2022-07-29T06:23:00;27.53;;;17.73;;
815;SDS011;25928;51.062;13.752;2022-07-29T06:25:26;23.57;;;19.07;;
815;SDS011;25928;51.062;13.752;2022-07-29T06:27:57;24.37;;;20.30;;
815;SDS011;25928;51.062;13.752;2022-07-29T06:30:23;26.10;;;19.70;;
815;SDS011;25928;51.062;13.752;2022-07-29T06:32:48;21.20;;;18.07;;
815;SDS011;25928;51.062;13.752;2022-07-29T06:35:14;28.93;;;18.33;;
815;SDS011;25928;51.062;13.752;2022-07-29T06:37:40;23.10;;;18.50;;
815;SDS011;25928;51.062;13.752;2022-07-29T06:40:06;23.40;;;19.23;;
815;SDS011;25928;51.062;13.752;2022-07-29T06:42:51;21.93;;;18.57;;
815;SDS011;25928;51.062;13.752;2022-07-29T06:45:16;20.13;;;17.57;;
815;SDS011;25928;51.062;13.752;2022-07-29T06:47:42;28.93;;;18.97;;
815;SDS011;25928;51.062;13.752;2022-07-29T06:50:08;27.47;;;18.13;;
815;SDS011;25928;51.062;13.752;2022-07-29T06:52:37;21.27;;;17.90;;
815;SDS011;25928;51.062;13.752;2022-07-29T06:55:03;20.57;;;18.43;;
815;SDS011;25928;51.062;13.752;2022-07-29T06:57:29;18.70;;;16.53;;
815;SDS011;25928;51.062;13.752;2022-07-29T06:59:58;20.23;;;16.33;;
815;SDS011;25928;51.062;13.752;2022-07-29T07:02:23;16.80;;;15.07;;
815;SDS011;25928;51.062;13.752;2022-07-29T07:04:49;17.07;;;15.17;;
815;SDS011;25928;51.062;13.752;2022-07-29T07:07:15;17.67;;;15.80;;
815;SDS011;25928;51.062;13.752;2022-07-29T07:09:40;22.13;;;16.30;;
815;SDS011;25928;51.062;13.752;2022-07-29T07:12:06;25.70;;;15.93;;
815;SDS011;25928;51.062;13.752;2022-07-29T07:14:32;18.80;;;16.97;;
815;SDS011;25928;51.062;13.752;2022-07-29T07:16:58;22.77;;;16.80;;
815;SDS011;25928;51.062;13.752;2022-07-29T07:19:25;21.23;;;16.30;;
815;SDS011;25928;51.062;13.752;2022-07-29T07:21:52;18.53;;;16.07;;
815;SDS011;25928;51.062;13.752;2022-07-29T07:24:18;20.50;;;15.07;;
815;SDS011;25928;51.062;13.752;2022-07-29T07:26:44;20.47;;;16.30;;
815;SDS011;25928;51.062;13.752;2022-07-29T07:29:09;16.83;;;15.07;;
815;SDS011;25928;51.062;13.752;2022-07-29T07:31:36;17.10;;;14.83;;
815;SDS011;25928;51.062;13.752;2022-07-29T07:34:03;16.00;;;14.40;;
815;SDS011;25928;51.062;13.752;2022-07-29T07:36:29;17.93;;;13.90;;
815;SDS011;25928;51.062;13.752;2022-07-29T07:38:54;19.73;;;13.73;;
815;SDS011;25928;51.062;13.752;2022-07-29T07:41:20;18.93;;;14.17;;
815;SDS011;25928;51.062;13.752;2022-07-29T07:43:47;15.77;;;12.97;;
815;SDS011;25928;51.062;13.752;2022-07-29T07:46:13;18.93;;;13.47;;
815;SDS011;25928;51.062;13.752;2022-07-29T07:48:39;20.83;;;13.90;;
815;SDS011;25928;51.062;13.752;2022-07-29T07:51:05;17.00;;;13.10;;
815;SDS011;25928;51.062;13.752;2022-07-29T07:53:32;15.00;;;12.00;;
815;SDS011;25928;51.062;13.752;2022-07-29T07:55:58;12.67;;;11.47;;
815;SDS011;25928;51.062;13.752;2022-07-29T07:58:23;15.13;;;11.73;;
815;SDS011;25928;51.062;13.752;2022-07-29T08:00:49;14.27;;;11.90;;
815;SDS011;25928;51.062;13.752;2022-07-29T08:03:15;14.50;;;13.00;;
815;SDS011;25928;51.062;13.752;2022-07-29T08:05:40;16.47;;;11.90;;
815;SDS011;25928;51.062;13.752;2022-07-29T08:08:06;17.77;;;11.90;;
815;SDS011;25928;51.062;13.752;2022-07-29T08:10:32;15.30;;;11.43;;
815;SDS011;25928;51.062;13.752;2022-07-29T08:13:16;13.43;;;11.97;;
815;SDS011;25928;51.062;13.752;2022-07-29T08:15:42;15.50;;;10.40;;
815;SDS011;25928;51.062;13.752;2022-07-29T08:18:11;18.50;;;11.33;;
815;SDS011;25928;51.062;13.752;2022-07-29T08:20:37;14.00;;;11.00;;
815;SDS011;25928;51.062;13.752;2022-07-29T08:23:03;17.90;;;11.50;;
815;SDS011;25928;51.062;13.752;2022-07-29T08:25:31;13.67;;;11.60;;
815;SDS011;25928;51.062;13.752;2022-07-29T08:27:57;16.27;;;11.53;;
815;SDS011;25928;51.062;13.752;2022-07-29T08:30:23;16.33;;;12.70;;
815;SDS011;25928;51.062;13.752;2022-07-29T08:32:49;16.80;;;13.50;;
815;SDS011;25928;51.062;13.752;2022-07-29T08:35:18;14.60;;;11.43;;
815;SDS011;25928;51.062;13.752;2022-07-29T08:37:44;14.63;;;11.87;;
815;SDS011;25928;51.062;13.752;2022-07-29T08:40:10;13.57;;;11.63;;
815;SDS011;25928;51.062;13.752;2022-07-29T08:42:36;15.63;;;11.90;;
815;SDS011;25928;51.062;13.752;2022-07-29T08:45:02;17.83;;;13.63;;
815;SDS011;25928;51.062;13.752;2022-07-29T08:47:28;18.53;;;12.10;;
815;SDS011;25928;51.062;13.752;2022-07-29T08:49:55;17.03;;;11.23;;
815;SDS011;25928;51.062;13.752;2022-07-29T08:52:20;15.63;;;13.20;;
815;SDS011;25928;51.062;13.752;2022-07-29T08:54:48;19.17;;;12.93;;
815;SDS011;25928;51.062;13.752;2022-07-29T08:57:15;16.10;;;13.70;;
815;SDS011;25928;51.062;13.752;2022-07-29T08:59:42;17.17;;;13.20;;
815;SDS011;25928;51.062;13.752;2022-07-29T09:02:12;18.93;;;12.53;;
815;SDS011;25928;51.062;13.752;2022-07-29T09:04:49;18.77;;;12.80;;
815;SDS011;25928;51.062;13.752;2022-07-29T09:07:16;15.30;;;12.27;;
815;SDS011;25928;51.062;13.752;2022-07-29T09:09:43;19.80;;;13.17;;
815;SDS011;25928;51.062;13.752;2022-07-29T09:12:09;13.93;;;12.47;;
815;SDS011;25928;51.062;13.752;2022-07-29T09:14:39;15.37;;;11.70;;
815;SDS011;25928;51.062;13.752;2022-07-29T09:17:05;21.73;;;11.53;;
815;SDS011;25928;51.062;13.752;2022-07-29T09:19:32;11.23;;;10.23;;
815;SDS011;25928;51.062;13.752;2022-07-29T09:22:00;15.87;;;11.50;;
815;SDS011;25928;51.062;13.752;2022-07-29T09:27:23;13.23;;;10.57;;
815;SDS011;25928;51.062;13.752;2022-07-29T09:29:58;11.60;;;9.67;;
815;SDS011;25928;51.062;13.752;2022-07-29T09:32:32;12.63;;;10.30;;
815;SDS011;25928;51.062;13.752;2022-07-29T09:35:14;12.97;;;11.20;;
815;SDS011;25928;51.062;13.752;2022-07-29T09:37:42;14.33;;;11.53;;
815;SDS011;25928;51.062;13.752;2022-07-29T09:40:15;14.00;;;10.90;;
815;SDS011;25928;51.062;13.752;2022-07-29T09:42:44;19.07;;;11.70;;
815;SDS011;25928;51.062;13.752;2022-07-29T09:45:10;15.33;;;10.90;;
815;SDS011;25928;51.062;13.752;2022-07-29T09:47:40;12.37;;;9.90;;
815;SDS011;25928;51.062;13.752;2022-07-29T09:50:11;14.73;;;10.67;;
815;SDS011;25928;51.062;13.752;2022-07-29T09:52:47;11.17;;;10.00;;
815;SDS011;25928;51.062;13.752;2022-07-29T09:55:14;11.73;;;10.20;;
815;SDS011;25928;51.062;13.752;2022-07-29T09:57:41;15.37;;;11.87;;
815;SDS011;25928;51.062;13.752;2022-07-29T10:02:34;15.03;;;13.43;;
815;SDS011;25928;51.062;13.752;2022-07-29T10:05:02;14.70;;;11.60;;
815;SDS011;25928;51.062;13.752;2022-07-29T10:07:43;14.80;;;11.40;;
815;SDS011;25928;51.062;13.752;2022-07-29T10:10:08;13.97;;;11.40;;
815;SDS011;25928;51.062;13.752;2022-07-29T10:12:35;11.93;;;9.47;;
815;SDS011;25928;51.062;13.752;2022-07-29T10:15:21;13.23;;;11.20;;
815;SDS011;25928;51.062;13.752;2022-07-29T10:17:52;13.40;;;10.00;;
815;SDS011;25928;51.062;13.752;2022-07-29T10:20:19;13.37;;;10.40;;
815;SDS011;25928;51.062;13.752;2022-07-29T10:22:46;11.40;;;9.90;;
815;SDS011;25928;51.062;13.752;2022-07-29T10:25:14;13.60;;;10.90;;
815;SDS011;25928;51.062;13.752;2022-07-29T10:27:41;17.20;;;12.43;;
815;SDS011;25928;51.062;13.752;2022-07-29T10:30:08;13.23;;;11.30;;
815;SDS011;25928;51.062;13.752;2022-07-29T10:32:39;12.53;;;11.37;;
815;SDS011;25928;51.062;13.752;2022-07-29T10:35:29;11.27;;;10.17;;
815;SDS011;25928;51.062;13.752;2022-07-29T10:38:02;11.23;;;9.90;;
815;SDS011;25928;51.062;13.752;2022-07-29T10:43:31;10.20;;;6.77;;
815;SDS011;25928;51.062;13.752;2022-07-29T10:46:01;7.60;;;6.80;;
815;SDS011;25928;51.062;13.752;2022-07-29T10:48:33;8.97;;;6.53;;
815;SDS011;25928;51.062;13.752;2022-07-29T10:56:28;5.07;;;4.47;;
815;SDS011;25928;51.062;13.752;2022-07-29T11:01:48;5.40;;;4.50;;
815;SDS011;25928;51.062;13.752;2022-07-29T11:05:02;6.10;;;3.23;;
815;SDS011;25928;51.062;13.752;2022-07-29T11:07:10;4.90;;;3.37;;
815;SDS011;25928;51.062;13.752;2022-07-29T11:09:37;6.40;;;3.93;;
815;SDS011;25928;51.062;13.752;2022-07-29T11:12:03;4.80;;;3.07;;
815;SDS011;25928;51.062;13.752;2022-07-29T11:17:25;4.90;;;3.20;;
815;SDS011;25928;51.062;13.752;2022-07-29T11:19:51;3.97;;;3.23;;
815;SDS011;25928;51.062;13.752;2022-07-29T11:22:35;3.93;;;3.53;;
815;SDS011;25928;51.062;13.752;2022-07-29T11:25:14;4.43;;;3.37;;
815;SDS011;25928;51.062;13.752;2022-07-29T11:27:42;4.77;;;3.67;;
815;SDS011;25928;51.062;13.752;2022-07-29T11:30:08;4.07;;;3.20;;
815;SDS011;25928;51.062;13.752;2022-07-29T11:32:37;4.13;;;3.43;;
815;SDS011;25928;51.062;13.752;2022-07-29T11:35:17;4.00;;;3.57;;
815;SDS011;25928;51.062;13.752;2022-07-29T11:37:45;4.03;;;3.70;;
815;SDS011;25928;51.062;13.752;2022-07-29T11:40:12;4.07;;;3.67;;
815;SDS011;25928;51.062;13.752;2022-07-29T11:42:41;4.63;;;3.10;;
815;SDS011;25928;51.062;13.752;2022-07-29T11:45:16;3.80;;;3.20;;
815;SDS011;25928;51.062;13.752;2022-07-29T11:47:47;4.33;;;4.03;;
815;SDS011;25928;51.062;13.752;2022-07-29T11:50:31;6.17;;;3.50;;
815;SDS011;25928;51.062;13.752;2022-07-29T11:52:59;5.27;;;3.57;;
815;SDS011;25928;51.062;13.752;2022-07-29T11:55:25;4.03;;;3.57;;
815;SDS011;25928;51.062;13.752;2022-07-29T11:57:58;6.33;;;3.50;;
815;SDS011;25928;51.062;13.752;2022-07-29T12:02:50;3.47;;;3.13;;
815;SDS011;25928;51.062;13.752;2022-07-29T12:05:16;3.77;;;3.37;;
815;SDS011;25928;51.062;13.752;2022-07-29T12:07:43;4.53;;;4.13;;
815;SDS011;25928;51.062;13.752;2022-07-29T12:10:09;4.90;;;3.50;;
815;SDS011;25928;51.062;13.752;2022-07-29T12:12:35;4.43;;;3.87;;
815;SDS011;25928;51.062;13.752;2022-07-29T12:15:14;4.07;;;3.33;;
815;SDS011;25928;51.062;13.752;2022-07-29T12:17:42;3.87;;;3.47;;
815;SDS011;25928;51.062;13.752;2022-07-29T12:20:08;4.63;;;3.60;;
815;SDS011;25928;51.062;13.752;2022-07-29T12:22:36;3.80;;;3.40;;
815;SDS011;25928;51.062;13.752;2022-07-29T12:25:11;5.73;;;3.87;;
815;SDS011;25928;51.062;13.752;2022-07-29T12:27:40;5.13;;;4.50;;
815;SDS011;25928;51.062;13.752;2022-07-29T12:30:08;4.07;;;3.77;;
815;SDS011;25928;51.062;13.752;2022-07-29T12:32:38;4.10;;;3.73;;
815;SDS011;25928;51.062;13.752;2022-07-29T12:35:06;5.80;;;3.90;;
815;SDS011;25928;51.062;13.752;2022-07-29T12:37:33;8.90;;;3.50;;
815;SDS011;25928;51.062;13.752;2022-07-29T12:40:00;4.23;;;3.53;;
815;SDS011;25928;51.062;13.752;2022-07-29T12:42:27;3.40;;;3.10;;
815;SDS011;25928;51.062;13.752;2022-07-29T12:44:53;4.90;;;4.40;;
815;SDS011;25928;51.062;13.752;2022-07-29T12:47:19;4.37;;;3.93;;
815;SDS011;25928;51.062;13.752;2022-07-29T12:49:45;4.00;;;3.70;;
815;SDS011;25928;51.062;13.752;2022-07-29T12:54:50;8.13;;;3.73;;
815;SDS011;25928;51.062;13.752;2022-07-29T12:57:16;5.10;;;4.60;;
815;SDS011;25928;51.062;13.752;2022-07-29T12:59:42;6.30;;;4.60;;
815;SDS011;25928;51.062;13.752;2022-07-29T13:02:19;7.47;;;4.63;;
815;SDS011;25928;51.062;13.752;2022-07-29T13:04:54;5.93;;;4.40;;
815;SDS011;25928;51.062;13.752;2022-07-29T13:07:25;4.20;;;3.90;;
815;SDS011;25928;51.062;13.752;2022-07-29T13:09:53;7.53;;;4.70;;
815;SDS011;25928;51.062;13.752;2022-07-29T13:12:20;5.20;;;3.83;;
815;SDS011;25928;51.062;13.752;2022-07-29T13:14:49;6.10;;;4.10;;
815;SDS011;25928;51.062;13.752;2022-07-29T13:17:16;4.50;;;4.10;;
815;SDS011;25928;51.062;13.752;2022-07-29T13:22:18;9.60;;;5.17;;
815;SDS011;25928;51.062;13.752;2022-07-29T13:27:15;4.33;;;4.00;;
815;SDS011;25928;51.062;13.752;2022-07-29T13:29:42;8.10;;;3.60;;
815;SDS011;25928;51.062;13.752;2022-07-29T13:32:08;8.00;;;4.57;;
815;SDS011;25928;51.062;13.752;2022-07-29T13:34:34;3.97;;;3.67;;
815;SDS011;25928;51.062;13.752;2022-07-29T13:37:00;4.43;;;4.03;;
815;SDS011;25928;51.062;13.752;2022-07-29T13:39:25;4.37;;;4.07;;
815;SDS011;25928;51.062;13.752;2022-07-29T13:41:51;6.60;;;4.10;;
815;SDS011;25928;51.062;13.752;2022-07-29T13:44:17;6.47;;;4.30;;
815;SDS011;25928;51.062;13.752;2022-07-29T13:46:42;5.30;;;4.80;;
815;SDS011;25928;51.062;13.752;2022-07-29T13:49:08;4.67;;;4.20;;
815;SDS011;25928;51.062;13.752;2022-07-29T13:51:36;4.33;;;3.90;;
815;SDS011;25928;51.062;13.752;2022-07-29T13:54:02;6.40;;;4.20;;
815;SDS011;25928;51.062;13.752;2022-07-29T13:56:28;4.07;;;3.77;;
815;SDS011;25928;51.062;13.752;2022-07-29T13:58:53;5.03;;;3.77;;
815;SDS011;25928;51.062;13.752;2022-07-29T14:01:19;4.20;;;3.57;;
815;SDS011;25928;51.062;13.752;2022-07-29T14:03:44;3.50;;;3.20;;
815;SDS011;25928;51.062;13.752;2022-07-29T14:06:10;4.07;;;3.20;;
815;SDS011;25928;51.062;13.752;2022-07-29T14:08:35;4.37;;;3.53;;
815;SDS011;25928;51.062;13.752;2022-07-29T14:11:01;4.13;;;3.73;;
815;SDS011;25928;51.062;13.752;2022-07-29T14:13:30;4.83;;;4.40;;
815;SDS011;25928;51.062;13.752;2022-07-29T14:15:56;4.90;;;3.63;;
815;SDS011;25928;51.062;13.752;2022-07-29T14:18:22;4.57;;;3.70;;
815;SDS011;25928;51.062;13.752;2022-07-29T14:20:48;5.40;;;3.47;;
815;SDS011;25928;51.062;13.752;2022-07-29T14:23:13;6.63;;;3.80;;
815;SDS011;25928;51.062;13.752;2022-07-29T14:25:39;3.97;;;3.67;;
815;SDS011;25928;51.062;13.752;2022-07-29T14:28:04;3.70;;;3.40;;
815;SDS011;25928;51.062;13.752;2022-07-29T14:30:30;4.30;;;3.90;;
815;SDS011;25928;51.062;13.752;2022-07-29T14:32:56;5.47;;;4.00;;
815;SDS011;25928;51.062;13.752;2022-07-29T14:35:21;3.90;;;3.10;;
815;SDS011;25928;51.062;13.752;2022-07-29T14:37:47;4.90;;;3.43;;
815;SDS011;25928;51.062;13.752;2022-07-29T14:40:13;3.60;;;3.30;;
815;SDS011;25928;51.062;13.752;2022-07-29T14:42:39;3.57;;;3.30;;
815;SDS011;25928;51.062;13.752;2022-07-29T14:45:05;3.70;;;3.50;;
815;SDS011;25928;51.062;13.752;2022-07-29T14:47:32;7.37;;;4.07;;
815;SDS011;25928;51.062;13.752;2022-07-29T14:49:58;6.13;;;5.40;;
815;SDS011;25928;51.062;13.752;2022-07-29T14:52:24;6.87;;;4.63;;
815;SDS011;25928;51.062;13.752;2022-07-29T14:54:50;5.07;;;4.67;;
815;SDS011;25928;51.062;13.752;2022-07-29T14:57:15;4.00;;;3.43;;
815;SDS011;25928;51.062;13.752;2022-07-29T14:59:41;3.57;;;3.00;;
815;SDS011;25928;51.062;13.752;2022-07-29T15:02:10;6.23;;;3.77;;
815;SDS011;25928;51.062;13.752;2022-07-29T15:04:39;5.77;;;5.27;;
815;SDS011;25928;51.062;13.752;2022-07-29T15:07:05;6.50;;;5.83;;
815;SDS011;25928;51.062;13.752;2022-07-29T15:09:30;6.00;;;5.57;;
815;SDS011;25928;51.062;13.752;2022-07-29T15:11:56;6.13;;;4.70;;
815;SDS011;25928;51.062;13.752;2022-07-29T15:14:22;4.43;;;4.03;;
815;SDS011;25928;51.062;13.752;2022-07-29T15:16:47;9.03;;;5.23;;
815;SDS011;25928;51.062;13.752;2022-07-29T15:19:13;5.23;;;4.63;;
815;SDS011;25928;51.062;13.752;2022-07-29T15:21:39;7.27;;;6.57;;
815;SDS011;25928;51.062;13.752;2022-07-29T15:24:04;7.30;;;5.63;;
815;SDS011;25928;51.062;13.752;2022-07-29T15:26:32;6.20;;;5.60;;
815;SDS011;25928;51.062;13.752;2022-07-29T15:28:57;8.03;;;7.30;;
815;SDS011;25928;51.062;13.752;2022-07-29T15:31:23;7.57;;;6.87;;
815;SDS011;25928;51.062;13.752;2022-07-29T15:33:49;9.93;;;7.70;;
815;SDS011;25928;51.062;13.752;2022-07-29T15:36:15;9.13;;;8.23;;
815;SDS011;25928;51.062;13.752;2022-07-29T15:38:40;8.67;;;7.87;;